Time;durP1;ratioP1;P1;durP2;ratioP2;P2;SDS_P1;SDS_P2;PMS_P1;PMS_P2;Temp;Humidity;BMP_temperature;BMP_pressure;BME280_temperature;BME280_humidity;BME280_pressure;Samples;Min_cycle;Max_cycle;Signal;HPM_P1;HPM_P2
2023/03/25 00:00:52;;;;;;;15.97;12.27;;;8.40;89.70;;;;;;5037001;28;20235;-87
2023/03/25 00:03:18;;;;;;;13.33;12.03;;;8.50;89.80;;;;;;5020610;28;20598;-87
2023/03/25 00:05:44;;;;;;;13.50;12.27;;;8.50;89.90;;;;;;5018624;28;20200;-87
2023/03/25 00:08:09;;;;;;;18.33;12.87;;;8.40;90.00;;;;;;5018263;28;20667;-87
2023/03/25 00:10:35;;;;;;;15.93;12.87;;;8.40;90.20;;;;;;5035845;28;20169;-87
2023/03/25 00:13:04;;;;;;;13.50;12.10;;;8.40;90.40;;;;;;5018732;28;20181;-87
2023/03/25 00:15:32;;;;;;;18.00;13.30;;;8.50;90.50;;;;;;5018153;28;20191;-87
2023/03/25 00:17:58;;;;;;;16.00;13.03;;;8.40;90.50;;;;;;5017737;28;20205;-87
2023/03/25 00:20:24;;;;;;;15.50;13.77;;;8.50;90.60;;;;;;5018867;28;20181;-86
2023/03/25 00:22:50;;;;;;;17.70;13.83;;;8.60;90.50;;;;;;5020281;28;20184;-87
2023/03/25 00:25:17;;;;;;;19.20;13.90;;;8.60;90.60;;;;;;5018250;28;20640;-87
2023/03/25 00:27:45;;;;;;;14.90;13.33;;;8.70;90.40;;;;;;5036469;28;20566;-87
2023/03/25 00:30:11;;;;;;;12.30;11.27;;;8.70;90.20;;;;;;5036977;28;20406;-87
2023/03/25 00:32:38;;;;;;;12.77;11.63;;;8.70;90.10;;;;;;5017930;28;20173;-87
2023/03/25 00:35:05;;;;;;;14.83;12.50;;;8.80;89.80;;;;;;5034926;28;20231;-87
2023/03/25 00:37:31;;;;;;;19.10;13.20;;;8.80;89.80;;;;;;5015659;28;20211;-87
2023/03/25 00:39:56;;;;;;;18.70;13.23;;;8.80;89.80;;;;;;5015790;28;20717;-87
2023/03/25 00:42:24;;;;;;;15.07;13.20;;;8.80;89.70;;;;;;5033323;28;20184;-87
2023/03/25 00:44:51;;;;;;;14.60;13.07;;;8.80;89.70;;;;;;5015524;28;20196;-87
2023/03/25 00:47:20;;;;;;;12.07;10.90;;;8.80;89.40;;;;;;5015720;28;20197;-86
2023/03/25 00:49:46;;;;;;;11.53;10.60;;;8.90;89.20;;;;;;5015563;28;20250;-86
2023/03/25 00:52:14;;;;;;;14.10;12.63;;;9.00;88.80;;;;;;5015590;28;20562;-87
2023/03/25 00:54:40;;;;;;;12.23;10.97;;;9.00;88.90;;;;;;5033330;28;20579;-86
2023/03/25 00:57:05;;;;;;;12.70;11.00;;;9.00;88.70;;;;;;5033135;28;20184;-86
2023/03/25 00:59:31;;;;;;;14.47;11.83;;;9.10;88.50;;;;;;5015465;28;20560;-86
2023/03/25 01:01:57;;;;;;;13.03;10.43;;;9.10;88.40;;;;;;5015509;28;20180;-86
2023/03/25 01:04:23;;;;;;;14.23;11.03;;;9.10;88.30;;;;;;5032994;28;20203;-87
2023/03/25 01:06:50;;;;;;;12.20;11.00;;;9.10;88.40;;;;;;5015280;28;20265;-86
2023/03/25 01:09:17;;;;;;;18.37;11.27;;;9.00;88.50;;;;;;5017401;28;20192;-86
2023/03/25 01:11:44;;;;;;;13.77;11.57;;;9.00;88.60;;;;;;5037156;28;20175;-86
2023/03/25 01:14:15;;;;;;;14.33;11.83;;;9.00;88.80;;;;;;5037301;28;20231;-87
2023/03/25 01:16:41;;;;;;;16.70;11.70;;;9.00;88.90;;;;;;5037069;28;20177;-86
2023/03/25 01:19:07;;;;;;;14.43;12.53;;;9.00;88.80;;;;;;5019115;28;20192;-86
2023/03/25 01:21:35;;;;;;;16.73;11.80;;;9.00;88.80;;;;;;5019352;28;20219;-86
2023/03/25 01:24:04;;;;;;;14.83;11.37;;;9.00;88.80;;;;;;5018959;28;20181;-87
2023/03/25 01:26:30;;;;;;;12.70;11.60;;;9.00;88.80;;;;;;5018993;28;20230;-86
2023/03/25 01:28:56;;;;;;;12.93;11.60;;;8.90;88.80;;;;;;5018947;28;20196;-86
2023/03/25 01:31:22;;;;;;;12.97;11.53;;;9.00;88.90;;;;;;5036702;28;20210;-87
2023/03/25 01:33:48;;;;;;;14.70;11.50;;;9.00;88.80;;;;;;5036631;28;20256;-86
2023/03/25 01:36:14;;;;;;;14.20;11.60;;;9.00;88.80;;;;;;5018995;28;20184;-87
2023/03/25 01:38:40;;;;;;;11.50;10.40;;;9.00;88.60;;;;;;5018778;28;20238;-87
2023/03/25 01:41:07;;;;;;;14.50;11.77;;;9.10;88.40;;;;;;5018838;28;20563;-86
2023/03/25 01:43:33;;;;;;;11.50;10.43;;;9.20;87.90;;;;;;5036499;28;20237;-86
2023/03/25 01:45:59;;;;;;;11.90;10.63;;;9.20;87.90;;;;;;5018700;28;20220;-87
2023/03/25 01:48:36;;;;;;;12.20;10.03;;;9.10;87.90;;;;;;5036223;28;20210;-86
2023/03/25 01:51:13;;;;;;;11.93;10.73;;;9.20;87.70;;;;;;5036302;28;20161;-85
2023/03/25 01:53:39;;;;;;;16.07;11.60;;;9.30;87.10;;;;;;5036648;28;20184;-88
2023/03/25 01:56:06;;;;;;;13.20;10.83;;;9.30;87.20;;;;;;5018514;28;20205;-88
2023/03/25 01:58:34;;;;;;;11.00;9.80;;;9.30;87.10;;;;;;5018537;28;20205;-87
2023/03/25 02:01:01;;;;;;;12.03;9.57;;;9.30;87.00;;;;;;5018525;28;20223;-87
2023/03/25 02:03:27;;;;;;;11.13;10.03;;;9.30;87.30;;;;;;5018430;28;20231;-86
2023/03/25 02:06:04;;;;;;;13.00;9.97;;;9.30;87.20;;;;;;5035982;28;20607;-86
2023/03/25 02:08:32;;;;;;;13.63;9.67;;;9.30;87.10;;;;;;5036339;28;20196;-86
2023/03/25 02:10:58;;;;;;;16.43;11.60;;;9.30;87.10;;;;;;5036255;28;20208;-87
2023/03/25 02:13:24;;;;;;;12.37;10.27;;;9.20;87.20;;;;;;5018237;28;20184;-86
2023/03/25 02:16:11;;;;;;;12.63;9.57;;;9.20;87.30;;;;;;5018127;28;20176;-86
2023/03/25 02:18:51;;;;;;;13.70;9.60;;;9.30;87.00;;;;;;5018136;28;20227;-86
2023/03/25 02:21:37;;;;;;;11.93;9.57;;;9.30;86.70;;;;;;5016978;28;20165;-86
2023/03/25 02:24:18;;;;;;;11.97;10.77;;;9.30;86.70;;;;;;5017974;28;20179;-86
2023/03/25 02:27:13;;;;;;;13.70;10.13;;;9.30;86.90;;;;;;5036065;28;20190;-86
2023/03/25 02:30:13;;;;;;;11.10;9.40;;;9.30;86.80;;;;;;5035797;28;20157;-87
2023/03/25 02:32:42;;;;;;;17.47;10.37;;;9.20;87.10;;;;;;5017908;28;20165;-86
2023/03/25 02:35:13;;;;;;;15.47;10.60;;;9.20;87.00;;;;;;5035566;28;20172;-86
2023/03/25 02:38:05;;;;;;;12.23;10.07;;;9.20;86.80;;;;;;5035592;28;20201;-86
2023/03/25 02:40:51;;;;;;;12.47;10.13;;;9.20;86.80;;;;;;5035784;28;20153;-87
2023/03/25 02:43:22;;;;;;;11.80;10.53;;;9.10;87.00;;;;;;5035614;28;20172;-86
2023/03/25 02:45:55;;;;;;;11.70;10.07;;;9.10;86.90;;;;;;5017571;28;20200;-86
2023/03/25 02:48:35;;;;;;;11.93;9.87;;;9.20;86.80;;;;;;5035056;28;20261;-86
2023/03/25 02:51:09;;;;;;;12.43;11.00;;;9.10;87.00;;;;;;5018100;28;20326;-87
2023/03/25 02:53:36;;;;;;;11.23;10.03;;;9.10;87.00;;;;;;5017498;28;20172;-86
2023/03/25 02:56:09;;;;;;;12.70;10.17;;;9.20;86.70;;;;;;5017453;28;20176;-86
2023/03/25 02:58:37;;;;;;;13.93;10.20;;;9.20;86.60;;;;;;5017380;28;20197;-86
2023/03/25 03:01:02;;;;;;;11.93;9.80;;;9.20;86.70;;;;;;5035056;28;20179;-86
2023/03/25 03:03:28;;;;;;;17.80;11.00;;;9.20;86.50;;;;;;5017196;28;20267;-87
2023/03/25 03:05:59;;;;;;;10.67;9.77;;;9.20;86.30;;;;;;5017256;28;20196;-87
2023/03/25 03:08:59;;;;;;;10.43;9.43;;;9.20;85.90;;;;;;5017067;28;20188;-86
2023/03/25 03:11:30;;;;;;;13.27;10.23;;;9.10;86.10;;;;;;4967388;28;20670;-86
2023/03/25 03:14:07;;;;;;;12.90;10.30;;;9.20;86.10;;;;;;5017197;28;20168;-86
2023/03/25 03:16:59;;;;;;;11.23;10.13;;;9.10;86.10;;;;;;5035029;28;20164;-87
2023/03/25 03:19:49;;;;;;;12.17;10.03;;;9.20;86.10;;;;;;5030618;28;20192;-86
2023/03/25 03:22:40;;;;;;;10.63;9.73;;;9.10;86.40;;;;;;5034645;28;20260;-86
2023/03/25 03:25:35;;;;;;;13.03;9.07;;;9.10;86.60;;;;;;5016861;28;20196;-86
2023/03/25 03:28:23;;;;;;;21.93;10.00;;;9.10;86.30;;;;;;5016778;28;20201;-86
2023/03/25 03:31:10;;;;;;;14.43;10.10;;;9.10;86.70;;;;;;5016682;28;20638;-87
2023/03/25 03:33:49;;;;;;;11.50;9.33;;;9.10;86.40;;;;;;5016731;28;20168;-86
2023/03/25 03:36:19;;;;;;;10.27;9.47;;;9.10;86.50;;;;;;5016784;28;20169;-86
2023/03/25 03:38:50;;;;;;;10.93;9.50;;;9.10;86.30;;;;;;5016545;28;20203;-87
2023/03/25 03:41:20;;;;;;;15.30;10.50;;;9.10;86.10;;;;;;5034269;28;20161;-86
2023/03/25 03:43:54;;;;;;;12.43;10.50;;;9.20;86.00;;;;;;5016665;28;20180;-86
2023/03/25 03:46:26;;;;;;;13.70;10.43;;;9.20;86.10;;;;;;5016495;28;20188;-87
2023/03/25 03:48:55;;;;;;;14.50;10.57;;;9.10;86.20;;;;;;5016213;28;20208;-87
2023/03/25 03:51:29;;;;;;;14.33;8.93;;;9.10;86.30;;;;;;5016387;28;20179;-86
2023/03/25 03:54:05;;;;;;;11.10;9.87;;;9.00;87.20;;;;;;5034310;28;20219;-87
2023/03/25 03:56:35;;;;;;;11.67;10.60;;;8.90;87.80;;;;;;5034031;28;20191;-86
2023/03/25 03:59:07;;;;;;;16.43;11.90;;;8.80;88.30;;;;;;5016294;28;20201;-87
2023/03/25 04:01:44;;;;;;;12.67;10.60;;;8.80;88.30;;;;;;5034095;28;20653;-87
2023/03/25 04:04:25;;;;;;;11.57;10.37;;;8.90;88.10;;;;;;5016339;28;20168;-87
2023/03/25 04:07:03;;;;;;;14.63;11.87;;;8.80;88.20;;;;;;5034206;28;20237;-87
2023/03/25 04:09:42;;;;;;;11.60;10.10;;;8.80;88.50;;;;;;5016162;28;20165;-87
2023/03/25 04:12:16;;;;;;;12.13;10.83;;;8.80;88.30;;;;;;5016152;28;20602;-87
2023/03/25 04:14:42;;;;;;;10.77;9.67;;;8.80;88.30;;;;;;5015985;28;20168;-87
2023/03/25 04:17:08;;;;;;;17.13;11.80;;;8.80;88.30;;;;;;5016089;28;20204;-86
2023/03/25 04:19:33;;;;;;;13.97;12.67;;;8.90;88.10;;;;;;5033590;28;20172;-87
2023/03/25 04:22:03;;;;;;;15.33;11.67;;;8.80;88.30;;;;;;5015995;28;20180;-87
2023/03/25 04:24:31;;;;;;;11.33;10.40;;;8.80;89.00;;;;;;5015857;28;20254;-87
2023/03/25 04:27:03;;;;;;;12.60;11.30;;;8.70;89.00;;;;;;5015796;28;20215;-88
2023/03/25 04:29:32;;;;;;;10.03;9.07;;;8.70;89.10;;;;;;5015796;28;20199;-88
2023/03/25 04:31:59;;;;;;;10.43;9.57;;;8.30;88.80;;;;;;5033365;28;20168;-88
2023/03/25 04:34:25;;;;;;;12.30;10.77;;;8.30;89.20;;;;;;5015801;28;20180;-88
2023/03/25 04:36:51;;;;;;;11.80;10.80;;;8.10;89.50;;;;;;5033355;28;20172;-88
2023/03/25 04:39:21;;;;;;;14.30;11.97;;;8.00;90.20;;;;;;5015617;28;20564;-89
2023/03/25 04:41:47;;;;;;;15.10;13.80;;;8.00;90.40;;;;;;5015646;28;20215;-89
2023/03/25 04:44:13;;;;;;;14.97;13.53;;;8.00;90.80;;;;;;5015247;28;20216;-88
2023/03/25 04:46:38;;;;;;;14.50;13.20;;;8.00;91.10;;;;;;5015637;28;20615;-89
2023/03/25 04:49:12;;;;;;;15.43;13.90;;;7.90;91.20;;;;;;5033485;28;20235;-88
2023/03/25 04:51:40;;;;;;;15.80;14.40;;;7.80;91.30;;;;;;5015599;28;20211;-88
2023/03/25 04:54:06;;;;;;;15.50;14.13;;;7.90;91.60;;;;;;5015574;28;20181;-88
2023/03/25 04:56:32;;;;;;;15.87;13.33;;;7.80;91.70;;;;;;5033727;28;20180;-88
2023/03/25 04:58:57;;;;;;;15.83;14.53;;;7.90;91.80;;;;;;5033058;28;20256;-88
2023/03/25 05:01:29;;;;;;;15.60;14.23;;;7.90;92.00;;;;;;5015955;28;20191;-87
2023/03/25 05:04:05;;;;;;;18.23;14.90;;;8.00;91.70;;;;;;5015426;28;20172;-87
2023/03/25 05:06:32;;;;;;;15.63;14.33;;;8.00;91.50;;;;;;5033045;28;20156;-87
2023/03/25 05:09:00;;;;;;;15.27;13.87;;;8.00;91.40;;;;;;5015661;28;20732;-88
2023/03/25 05:11:27;;;;;;;16.03;14.73;;;8.00;91.40;;;;;;5033013;28;20173;-88
2023/03/25 05:13:53;;;;;;;17.53;16.13;;;8.10;91.60;;;;;;5015980;28;20188;-88
2023/03/25 05:16:19;;;;;;;17.33;15.73;;;8.10;91.60;;;;;;5015634;28;20180;-88
2023/03/25 05:18:45;;;;;;;18.93;16.97;;;8.10;92.00;;;;;;5032971;28;20196;-87
2023/03/25 05:21:11;;;;;;;20.03;17.30;;;8.00;92.20;;;;;;5032957;28;20701;-88
2023/03/25 05:23:37;;;;;;;19.43;17.40;;;8.10;92.20;;;;;;5033187;28;20183;-88
2023/03/25 05:26:03;;;;;;;17.93;16.33;;;8.10;92.20;;;;;;5032798;28;20201;-88
2023/03/25 05:28:29;;;;;;;19.87;17.90;;;8.10;92.20;;;;;;5032690;28;20283;-88
2023/03/25 05:30:55;;;;;;;19.13;17.40;;;8.10;92.30;;;;;;5032806;28;20252;-88
2023/03/25 05:33:21;;;;;;;19.50;17.57;;;8.10;92.30;;;;;;5015528;28;20523;-88
2023/03/25 05:35:47;;;;;;;14.43;13.20;;;8.10;92.20;;;;;;5033241;28;20226;-88
2023/03/25 05:38:17;;;;;;;15.97;14.20;;;8.20;92.20;;;;;;5015110;28;20193;-88
2023/03/25 05:40:47;;;;;;;18.07;15.80;;;8.20;92.00;;;;;;5032767;28;20153;-88
2023/03/25 05:43:14;;;;;;;17.87;14.60;;;8.20;92.10;;;;;;5015034;28;20177;-88
2023/03/25 05:45:40;;;;;;;15.13;13.60;;;8.20;91.70;;;;;;5032931;28;20204;-88
2023/03/25 05:48:07;;;;;;;14.63;13.17;;;8.30;91.60;;;;;;5014837;28;20729;-87
2023/03/25 05:50:33;;;;;;;13.63;12.60;;;8.30;91.60;;;;;;5015015;28;20172;-88
2023/03/25 05:52:58;;;;;;;25.60;15.13;;;8.30;91.10;;;;;;5032574;28;20546;-88
2023/03/25 05:55:24;;;;;;;20.23;14.40;;;8.30;91.10;;;;;;5017030;28;20235;-88
2023/03/25 05:57:50;;;;;;;17.50;14.23;;;8.30;90.80;;;;;;5018561;28;20227;-88
2023/03/25 06:00:18;;;;;;;17.43;14.00;;;8.30;90.70;;;;;;5018558;28;20172;-87
2023/03/25 06:02:44;;;;;;;17.37;13.33;;;8.30;90.70;;;;;;5036130;28;20253;-87
2023/03/25 06:05:12;;;;;;;16.47;13.63;;;8.30;90.80;;;;;;5018354;28;20204;-87
2023/03/25 06:07:42;;;;;;;20.90;16.00;;;8.30;90.60;;;;;;5018382;28;20204;-87
2023/03/25 06:10:15;;;;;;;15.90;14.37;;;8.40;90.30;;;;;;5035952;28;20694;-88
2023/03/25 06:12:40;;;;;;;19.13;14.90;;;8.40;90.40;;;;;;5036015;28;20161;-88
2023/03/25 06:15:11;;;;;;;16.30;14.83;;;8.40;90.30;;;;;;5018264;28;20237;-87
2023/03/25 06:17:37;;;;;;;17.47;16.07;;;8.40;90.20;;;;;;5018214;28;20271;-88
2023/03/25 06:20:11;;;;;;;20.20;17.97;;;8.30;90.20;;;;;;5018203;28;20207;-88
2023/03/25 06:22:44;;;;;;;17.43;15.97;;;8.40;90.20;;;;;;5035904;28;20160;-87
2023/03/25 06:25:18;;;;;;;19.57;16.80;;;8.30;90.40;;;;;;5017945;28;20193;-87
2023/03/25 06:27:47;;;;;;;17.27;15.70;;;8.40;90.30;;;;;;5017908;28;20192;-88
2023/03/25 06:30:15;;;;;;;19.23;17.63;;;8.50;90.20;;;;;;5017964;28;20176;-88
2023/03/25 06:32:41;;;;;;;20.17;18.20;;;8.50;90.40;;;;;;5017967;28;20173;-88
2023/03/25 06:35:08;;;;;;;19.20;16.30;;;8.60;90.60;;;;;;5035555;28;20669;-88
2023/03/25 06:37:34;;;;;;;17.53;15.73;;;8.70;90.60;;;;;;5035413;28;20196;-87
2023/03/25 06:40:01;;;;;;;22.43;17.07;;;8.70;90.20;;;;;;5017798;28;20577;-87
2023/03/25 06:42:27;;;;;;;19.33;17.57;;;8.60;90.30;;;;;;5017693;28;20180;-88
2023/03/25 06:44:53;;;;;;;18.30;16.57;;;8.50;90.30;;;;;;5017602;28;20287;-87
2023/03/25 06:47:19;;;;;;;19.23;17.43;;;8.50;90.30;;;;;;5017332;28;20331;-87
2023/03/25 06:49:44;;;;;;;21.50;19.10;;;8.60;90.30;;;;;;5017576;28;20272;-87
2023/03/25 06:52:10;;;;;;;20.93;18.77;;;8.70;90.10;;;;;;5017556;28;20180;-87
2023/03/25 06:54:36;;;;;;;21.13;18.77;;;8.70;90.20;;;;;;5035218;28;20176;-88
2023/03/25 06:57:02;;;;;;;18.87;16.90;;;8.80;90.10;;;;;;5035000;28;20187;-88
2023/03/25 06:59:27;;;;;;;19.30;17.33;;;8.80;89.90;;;;;;5017351;28;20199;-87
2023/03/25 07:01:53;;;;;;;20.13;18.30;;;8.80;90.00;;;;;;5035099;28;20177;-87
2023/03/25 07:04:18;;;;;;;20.17;17.47;;;8.80;90.20;;;;;;5034928;28;20173;-87
2023/03/25 07:06:44;;;;;;;20.70;18.60;;;8.90;89.80;;;;;;5034380;28;20180;-88
2023/03/25 07:09:10;;;;;;;18.93;17.17;;;8.90;89.70;;;;;;5017305;28;20276;-88
2023/03/25 07:11:35;;;;;;;17.80;16.03;;;9.00;89.50;;;;;;5017306;28;20178;-88
2023/03/25 07:14:01;;;;;;;18.30;16.53;;;8.90;89.30;;;;;;5018388;28;20643;-88
2023/03/25 07:16:26;;;;;;;23.17;16.70;;;8.90;89.40;;;;;;5017024;28;20192;-88
2023/03/25 07:18:53;;;;;;;23.40;18.77;;;8.90;89.40;;;;;;5016983;28;20250;-88
2023/03/25 07:21:19;;;;;;;21.57;17.37;;;8.90;89.50;;;;;;5034987;28;20172;-87
2023/03/25 07:23:45;;;;;;;21.07;16.50;;;8.90;89.50;;;;;;5016922;28;20180;-88
2023/03/25 07:26:12;;;;;;;17.20;15.47;;;8.90;89.40;;;;;;5016794;28;20209;-88
2023/03/25 07:28:39;;;;;;;18.80;16.50;;;8.90;89.50;;;;;;5016825;28;20224;-87
2023/03/25 07:31:07;;;;;;;17.57;15.77;;;8.90;89.40;;;;;;5017075;28;20172;-87
2023/03/25 07:33:32;;;;;;;19.30;15.87;;;8.90;89.40;;;;;;5034442;28;20177;-88
2023/03/25 07:35:58;;;;;;;19.13;17.20;;;8.90;88.80;;;;;;5034620;28;20268;-88
2023/03/25 07:38:23;;;;;;;18.57;16.80;;;9.00;89.00;;;;;;5016632;28;20206;-88
2023/03/25 07:40:49;;;;;;;23.93;18.57;;;9.00;89.30;;;;;;5016685;28;20600;-88
2023/03/25 07:43:14;;;;;;;17.93;16.07;;;9.00;89.20;;;;;;5016612;28;20263;-85
2023/03/25 07:45:40;;;;;;;19.50;15.70;;;9.10;89.00;;;;;;5016565;28;20258;-87
2023/03/25 07:48:12;;;;;;;16.90;15.33;;;9.10;89.00;;;;;;5016306;28;20296;-87
2023/03/25 07:50:37;;;;;;;20.50;15.63;;;9.20;88.90;;;;;;5016545;28;20605;-87
2023/03/25 07:53:03;;;;;;;18.40;15.53;;;9.20;88.40;;;;;;5034201;28;20210;-87
2023/03/25 07:55:28;;;;;;;15.90;14.40;;;9.20;87.70;;;;;;5016395;28;20177;-86
2023/03/25 07:57:55;;;;;;;15.17;13.80;;;9.40;88.20;;;;;;5034227;28;20670;-87
2023/03/25 08:00:21;;;;;;;15.40;14.20;;;9.40;88.20;;;;;;5016301;28;20189;-88
2023/03/25 08:02:46;;;;;;;17.03;15.47;;;9.40;88.30;;;;;;5016217;28;20184;-87
2023/03/25 08:05:20;;;;;;;14.53;13.53;;;9.20;87.40;;;;;;5016122;28;20212;-87
2023/03/25 08:07:49;;;;;;;15.73;14.07;;;9.20;88.10;;;;;;5033832;28;20562;-87
2023/03/25 08:10:15;;;;;;;15.77;14.37;;;9.10;88.60;;;;;;5016193;28;20176;-87
2023/03/25 08:12:42;;;;;;;14.47;13.27;;;9.00;89.10;;;;;;5016244;28;20168;-87
2023/03/25 08:15:08;;;;;;;16.43;14.70;;;8.90;88.30;;;;;;5033742;28;20172;-87
2023/03/25 08:17:34;;;;;;;17.07;15.60;;;8.80;88.50;;;;;;5015523;28;20247;-87
2023/03/25 08:19:59;;;;;;;17.40;15.70;;;8.90;89.40;;;;;;5015510;28;20596;-87
2023/03/25 08:22:26;;;;;;;18.97;17.27;;;8.80;89.60;;;;;;5015939;28;20734;-87
2023/03/25 08:24:52;;;;;;;23.17;20.73;;;8.70;90.60;;;;;;5033553;28;20554;-88
2023/03/25 08:27:17;;;;;;;24.63;22.30;;;8.50;91.30;;;;;;5015744;28;20175;-88
2023/03/25 08:29:45;;;;;;;28.07;22.80;;;8.50;91.70;;;;;;5015732;28;20176;-88
2023/03/25 08:32:11;;;;;;;27.30;24.53;;;8.50;92.00;;;;;;5015850;28;20187;-87
2023/03/25 08:34:38;;;;;;;29.17;26.13;;;8.50;92.20;;;;;;5033412;28;20168;-88
2023/03/25 08:37:06;;;;;;;28.77;26.17;;;8.70;92.40;;;;;;5015804;28;20602;-88
2023/03/25 08:39:38;;;;;;;26.87;24.67;;;8.90;92.50;;;;;;5015656;28;20185;-87
2023/03/25 08:42:05;;;;;;;25.63;22.93;;;9.00;92.40;;;;;;5033407;28;20157;-88
2023/03/25 08:44:30;;;;;;;24.20;22.10;;;9.20;92.00;;;;;;5015738;28;20200;-87
2023/03/25 08:46:56;;;;;;;25.37;21.60;;;9.20;91.20;;;;;;5015880;28;20183;-88
2023/03/25 08:49:22;;;;;;;24.80;22.97;;;9.10;90.70;;;;;;5015438;28;20243;-87
2023/03/25 08:51:47;;;;;;;19.50;17.90;;;9.00;90.30;;;;;;5033681;28;20173;-87
2023/03/25 08:54:13;;;;;;;14.90;14.00;;;8.90;89.40;;;;;;5033438;28;20173;-87
2023/03/25 08:56:38;;;;;;;19.67;18.13;;;8.50;87.50;;;;;;5015633;28;20211;-87
2023/03/25 08:59:04;;;;;;;15.87;14.67;;;8.00;88.30;;;;;;5033039;28;20189;-88
2023/03/25 09:01:29;;;;;;;15.50;14.37;;;8.00;87.00;;;;;;5015531;28;20669;-87
2023/03/25 09:03:56;;;;;;;16.73;15.43;;;8.10;87.50;;;;;;5015582;28;20661;-86
2023/03/25 09:06:22;;;;;;;17.33;16.03;;;8.20;87.90;;;;;;5033009;28;20207;-86
2023/03/25 09:08:48;;;;;;;19.10;17.60;;;8.30;88.10;;;;;;5015535;28;20200;-89
2023/03/25 09:11:14;;;;;;;17.53;15.80;;;8.40;88.50;;;;;;5015601;28;20670;-88
2023/03/25 09:13:40;;;;;;;19.10;17.23;;;8.30;87.90;;;;;;5032962;28;20175;-90
2023/03/25 09:16:06;;;;;;;18.73;17.53;;;8.40;88.50;;;;;;5033208;28;20259;-90
2023/03/25 09:18:32;;;;;;;18.13;17.03;;;8.50;88.50;;;;;;5015216;28;20207;-90
2023/03/25 09:20:58;;;;;;;19.40;17.57;;;8.50;88.70;;;;;;5032883;28;20180;-90
2023/03/25 09:23:24;;;;;;;16.83;15.23;;;8.50;88.70;;;;;;5033073;28;20192;-90
2023/03/25 09:25:50;;;;;;;18.43;16.83;;;8.50;88.40;;;;;;5032830;28;20204;-90
2023/03/25 09:28:15;;;;;;;17.40;16.03;;;8.50;88.30;;;;;;5032844;28;20196;-90
2023/03/25 09:30:41;;;;;;;16.93;15.73;;;8.40;88.20;;;;;;5035764;28;20177;-90
2023/03/25 09:33:06;;;;;;;18.90;17.37;;;8.40;88.30;;;;;;5019002;28;20168;-89
2023/03/25 09:35:32;;;;;;;18.23;16.93;;;8.40;88.70;;;;;;5036859;28;20651;-91
2023/03/25 09:37:58;;;;;;;19.50;18.17;;;8.30;88.40;;;;;;5036895;28;20686;-90
2023/03/25 09:40:24;;;;;;;18.73;17.23;;;8.30;89.30;;;;;;5037114;28;20421;-91
2023/03/25 09:43:26;;;;;;;21.80;19.87;;;8.40;89.20;;;;;;5023380;28;20177;-91
2023/03/25 09:45:53;;;;;;;22.13;20.33;;;8.50;89.20;;;;;;5017679;28;20354;-90
2023/03/25 09:48:45;;;;;;;19.50;17.80;;;8.60;89.70;;;;;;5025004;28;20228;-91
2023/03/25 09:51:12;;;;;;;18.53;16.93;;;8.70;88.90;;;;;;5019304;28;20177;-91
2023/03/25 09:53:47;;;;;;;18.50;17.20;;;8.70;88.40;;;;;;5018772;28;20176;-91
2023/03/25 09:56:20;;;;;;;19.27;17.57;;;8.70;88.10;;;;;;5019010;28;20171;-91
2023/03/25 09:58:47;;;;;;;19.97;18.37;;;8.80;88.00;;;;;;5019320;28;20562;-91
2023/03/25 10:01:30;;;;;;;19.20;17.40;;;8.90;88.20;;;;;;5019554;28;20555;-89
2023/03/25 10:04:39;;;;;;;18.47;17.07;;;8.90;88.00;;;;;;5018671;28;20176;-90
2023/03/25 10:07:19;;;;;;;18.40;15.93;;;9.10;88.10;;;;;;5036387;28;20157;-91
2023/03/25 10:10:19;;;;;;;17.00;15.30;;;9.10;87.10;;;;;;5027118;28;20230;-93
2023/03/25 10:13:21;;;;;;;18.07;16.27;;;9.40;87.60;;;;;;5038231;28;20173;-93
2023/03/25 10:16:05;;;;;;;15.47;14.57;;;9.60;87.70;;;;;;5026179;28;20276;-91
2023/03/25 10:18:44;;;;;;;18.00;16.30;;;9.70;86.00;;;;;;5023833;28;20287;-91
2023/03/25 10:21:36;;;;;;;18.33;16.63;;;10.00;86.60;;;;;;5020753;28;20194;-91
2023/03/25 10:24:23;;;;;;;17.97;16.30;;;10.00;86.30;;;;;;5015520;28;20242;-91
2023/03/25 10:27:19;;;;;;;17.80;16.30;;;9.90;86.30;;;;;;5022226;28;20195;-92
2023/03/25 10:30:19;;;;;;;21.53;19.47;;;10.00;86.00;;;;;;5014684;28;20185;-91
2023/03/25 10:32:52;;;;;;;22.73;20.53;;;10.20;85.70;;;;;;5035809;28;20161;-93
2023/03/25 10:35:31;;;;;;;22.53;20.13;;;10.10;86.40;;;;;;5035794;28;20176;-92
2023/03/25 10:38:01;;;;;;;23.53;21.37;;;9.80;85.40;;;;;;5035683;28;20199;-92
2023/03/25 10:40:38;;;;;;;23.90;21.57;;;9.80;85.70;;;;;;5034469;28;20191;-93
2023/03/25 10:43:15;;;;;;;23.87;19.00;;;9.70;85.70;;;;;;5037452;28;20149;-93
2023/03/25 10:45:42;;;;;;;20.57;16.20;;;9.80;86.00;;;;;;5031707;28;20197;-92
2023/03/25 10:48:24;;;;;;;19.37;17.30;;;9.70;85.50;;;;;;5029517;28;20238;-92
2023/03/25 10:50:55;;;;;;;22.80;20.60;;;9.40;86.10;;;;;;5038506;28;20156;-93
2023/03/25 10:53:26;;;;;;;23.67;21.77;;;9.00;87.50;;;;;;5201800;23;20237;-91
2023/03/25 10:56:14;;;;;;;32.33;29.87;;;8.30;88.50;;;;;;5019688;28;20181;-91
2023/03/25 10:58:42;;;;;;;42.80;39.90;;;7.50;90.70;;;;;;5018544;28;20189;-93
2023/03/25 11:01:14;;;;;;;40.47;38.07;;;6.80;91.50;;;;;;5022147;28;20658;-93
2023/03/25 11:03:41;;;;;;;39.07;36.10;;;6.70;92.20;;;;;;5027106;28;20200;-91
2023/03/25 11:06:25;;;;;;;36.87;33.80;;;7.00;92.40;;;;;;5017503;28;20212;-91
2023/03/25 11:09:11;;;;;;;29.27;27.47;;;7.10;91.80;;;;;;5017412;28;20207;-91
2023/03/25 11:11:36;;;;;;;27.83;26.23;;;7.20;91.10;;;;;;5017171;28;20550;-90
2023/03/25 11:14:02;;;;;;;28.37;26.67;;;7.30;90.90;;;;;;5017137;28;20275;-89
2023/03/25 11:17:04;;;;;;;31.13;28.67;;;7.40;90.60;;;;;;5017620;28;20185;-90
2023/03/25 11:20:05;;;;;;;31.90;29.90;;;7.50;90.90;;;;;;5008889;28;20185;-92
2023/03/25 11:22:35;;;;;;;31.70;29.77;;;7.70;91.10;;;;;;5010908;28;20184;-91
2023/03/25 11:25:12;;;;;;;28.17;26.37;;;8.10;91.10;;;;;;5025556;28;20193;-92
2023/03/25 11:28:01;;;;;;;30.73;28.93;;;8.30;90.70;;;;;;5029579;28;20232;-92
2023/03/25 11:30:30;;;;;;;33.63;31.70;;;8.80;91.20;;;;;;5027575;28;20261;-92
2023/03/25 11:33:03;;;;;;;32.43;30.53;;;9.50;91.30;;;;;;5021704;28;20208;-92
2023/03/25 11:35:41;;;;;;;34.80;32.47;;;9.70;90.20;;;;;;5018514;28;20195;-92
2023/03/25 11:38:17;;;;;;;35.10;32.70;;;9.80;90.20;;;;;;5020072;28;20196;-91
2023/03/25 11:40:56;;;;;;;37.47;34.77;;;9.70;90.40;;;;;;5036112;28;20161;-92
2023/03/25 11:43:25;;;;;;;31.33;29.40;;;9.80;90.40;;;;;;5017169;28;20264;-91
2023/03/25 11:45:52;;;;;;;35.27;32.97;;;9.70;89.90;;;;;;5034890;28;20196;-91
2023/03/25 11:48:20;;;;;;;40.57;38.00;;;9.90;90.10;;;;;;5034490;28;20665;-91
2023/03/25 11:51:00;;;;;;;29.93;27.97;;;10.00;90.10;;;;;;5034394;28;20165;-90
2023/03/25 11:53:29;;;;;;;34.17;31.67;;;10.00;89.10;;;;;;5016170;28;20523;-91
2023/03/25 11:55:59;;;;;;;30.37;27.93;;;10.10;89.20;;;;;;5016622;28;20181;-90
2023/03/25 11:58:30;;;;;;;30.20;28.17;;;10.00;88.20;;;;;;5034116;28;20220;-91
2023/03/25 12:01:02;;;;;;;26.83;25.13;;;9.70;86.90;;;;;;5016496;28;20168;-90
2023/03/25 12:03:31;;;;;;;24.43;22.60;;;9.80;87.80;;;;;;5016633;28;20177;-91
2023/03/25 12:06:10;;;;;;;32.13;29.53;;;9.90;87.50;;;;;;5034029;28;20651;-91
2023/03/25 12:08:42;;;;;;;25.47;23.40;;;9.90;88.30;;;;;;5034892;28;20185;-91
2023/03/25 12:11:18;;;;;;;24.43;22.67;;;9.80;87.30;;;;;;5017110;28;20180;-91
2023/03/25 12:14:00;;;;;;;23.57;21.70;;;9.80;87.80;;;;;;5016177;28;20165;-91
2023/03/25 12:16:47;;;;;;;28.17;26.30;;;9.80;87.50;;;;;;5034158;28;20183;-90
2023/03/25 12:19:41;;;;;;;25.90;23.97;;;9.70;87.80;;;;;;5033881;28;20196;-91
2023/03/25 12:22:22;;;;;;;28.67;26.47;;;9.80;88.60;;;;;;5034758;28;20169;-93
2023/03/25 12:25:10;;;;;;;29.23;26.80;;;9.70;89.00;;;;;;5024713;28;20204;-92
2023/03/25 12:28:05;;;;;;;29.97;27.30;;;9.50;89.00;;;;;;5035310;28;20215;-92
2023/03/25 12:30:39;;;;;;;27.53;25.20;;;9.50;89.10;;;;;;5018183;28;20196;-92
2023/03/25 12:33:32;;;;;;;30.50;28.20;;;9.30;89.00;;;;;;5020449;28;20191;-92
2023/03/25 12:36:11;;;;;;;31.40;29.20;;;9.30;89.30;;;;;;5017971;28;20191;-91
2023/03/25 12:39:08;;;;;;;24.20;22.80;;;9.30;89.20;;;;;;5040997;28;20208;-92
2023/03/25 12:42:16;;;;;;;27.70;25.43;;;9.00;88.40;;;;;;5028191;28;20641;-93
2023/03/25 12:44:54;;;;;;;26.17;23.97;;;8.70;87.90;;;;;;5018411;28;20684;-92
2023/03/25 12:47:41;;;;;;;28.13;26.33;;;8.50;88.20;;;;;;5038223;28;20192;-92
2023/03/25 12:50:24;;;;;;;31.30;28.90;;;8.30;89.20;;;;;;5019781;28;20168;-93
2023/03/25 12:53:17;;;;;;;30.43;28.43;;;8.30;89.40;;;;;;5017513;28;20168;-92
2023/03/25 12:56:05;;;;;;;31.00;28.57;;;8.20;89.60;;;;;;5020615;28;20200;-91
2023/03/25 12:58:54;;;;;;;32.67;30.47;;;8.30;90.00;;;;;;5018357;28;20200;-92
2023/03/25 13:01:35;;;;;;;34.63;32.13;;;8.50;90.50;;;;;;5018104;28;20238;-92